createdAt,value
2022-09-11T00:00:22.202Z,-145.52
2022-09-11T00:01:19.170Z,-145.52
2022-09-11T00:02:19.231Z,-145.52
2022-09-11T00:03:19.142Z,-145.52
2022-09-11T00:04:19.132Z,-145.52
2022-09-11T00:05:19.139Z,-145.52
2022-09-11T00:06:28.944Z,-145.52
2022-09-11T00:07:20.240Z,-145.52
2022-09-11T00:08:19.122Z,-145.52
2022-09-11T00:09:19.040Z,-145.52
2022-09-11T00:10:19.042Z,-145.52
2022-09-11T00:11:19.034Z,-145.52
2022-09-11T00:12:19.004Z,-145.52
2022-09-11T00:13:19.024Z,-145.52
2022-09-11T00:14:19.022Z,-145.52
2022-09-11T00:15:19.125Z,-145.52
2022-09-11T00:16:19.056Z,-145.52
2022-09-11T00:17:18.966Z,-145.52
2022-09-11T00:18:18.914Z,-146.74
2022-09-11T00:19:21.908Z,-145.52
2022-09-11T00:20:21.930Z,-145.52
2022-09-11T00:21:18.877Z,-145.52
2022-09-11T00:22:18.946Z,-146.74
2022-09-11T00:23:18.916Z,-145.52
2022-09-11T00:24:18.840Z,-145.52
2022-09-11T00:25:18.818Z,-145.52
2022-09-11T00:26:18.821Z,-145.52
2022-09-11T00:27:18.786Z,-145.52
2022-09-11T00:28:18.826Z,-145.52
2022-09-11T00:29:18.759Z,-145.52
2022-09-11T00:30:18.760Z,-145.52
2022-09-11T00:31:18.738Z,-145.52
2022-09-11T00:32:18.723Z,-145.52
2022-09-11T00:33:18.824Z,-145.52
2022-09-11T00:34:18.700Z,-144.30
2022-09-11T00:35:18.681Z,-144.30
2022-09-11T00:36:18.672Z,-144.30
2022-09-11T00:37:18.656Z,-144.30
2022-09-11T00:38:18.632Z,-144.30
2022-09-11T00:39:21.642Z,-144.30
2022-09-11T00:40:21.671Z,-144.30
2022-09-11T00:41:18.592Z,-144.30
2022-09-11T00:42:18.584Z,-144.30
2022-09-11T00:43:18.662Z,-144.30
2022-09-11T00:44:18.830Z,-143.08
2022-09-11T00:45:18.548Z,-143.08
2022-09-11T00:46:18.522Z,-143.08
2022-09-11T00:47:18.526Z,-143.08
2022-09-11T00:48:18.486Z,-143.08
2022-09-11T00:49:18.487Z,-143.08
2022-09-11T00:50:19.565Z,-143.08
2022-09-11T00:51:18.467Z,-143.08
2022-09-11T00:52:18.458Z,-143.08
2022-09-11T00:53:18.448Z,-143.08
2022-09-11T00:54:18.428Z,-143.08
2022-09-11T00:55:18.418Z,-143.08
2022-09-11T00:56:18.440Z,-143.08
2022-09-11T00:57:18.379Z,-143.08
2022-09-11T00:58:18.369Z,-143.08
2022-09-11T00:59:21.372Z,-143.08
2022-09-11T01:00:21.353Z,-143.08
2022-09-11T01:01:18.381Z,-143.08
2022-09-11T01:02:18.341Z,-143.08
2022-09-11T01:03:18.310Z,-143.08
2022-09-11T01:04:18.293Z,-143.08
2022-09-11T01:05:18.265Z,-143.08
2022-09-11T01:06:18.292Z,-143.08
2022-09-11T01:07:18.279Z,-143.08
2022-09-11T01:08:18.234Z,-143.08
2022-09-11T01:09:18.222Z,-143.08
2022-09-11T01:10:18.203Z,-141.87
2022-09-11T01:11:18.223Z,-141.87
2022-09-11T01:12:18.184Z,-141.87
2022-09-11T01:13:18.324Z,-141.87
2022-09-11T01:14:18.145Z,-141.87
2022-09-11T01:15:18.152Z,-141.87
2022-09-11T01:16:18.133Z,-141.87
2022-09-11T01:17:18.120Z,-141.87
2022-09-11T01:18:18.095Z,-141.87
2022-09-11T01:19:21.147Z,-141.87
2022-09-11T01:20:21.088Z,-141.87
2022-09-11T01:21:18.058Z,-140.65
2022-09-11T01:22:18.048Z,-140.65
2022-09-11T01:23:18.035Z,-140.65
2022-09-11T01:24:18.009Z,-140.65
2022-09-11T01:25:18.026Z,-140.65
2022-09-11T01:26:17.999Z,-140.65
2022-09-11T01:27:17.979Z,-140.65
2022-09-11T01:28:17.970Z,-140.65
2022-09-11T01:29:17.954Z,-140.65
2022-09-11T01:30:17.990Z,-140.65
2022-09-11T01:31:17.968Z,-140.65
2022-09-11T01:32:17.911Z,-140.65
2022-09-11T01:33:17.901Z,-140.65
2022-09-11T01:34:17.891Z,-140.65
2022-09-11T01:35:17.884Z,-140.65
2022-09-11T01:36:18.007Z,-139.43
2022-09-11T01:37:17.832Z,-139.43
2022-09-11T01:38:17.832Z,-140.65
2022-09-11T01:39:20.825Z,-140.65
2022-09-11T01:40:20.824Z,-139.43
2022-09-11T01:41:17.796Z,-140.65
2022-09-11T01:42:17.822Z,-140.65
2022-09-11T01:43:17.779Z,-141.87
2022-09-11T01:44:17.793Z,-141.87
2022-09-11T01:45:17.737Z,-141.87
2022-09-11T01:46:17.731Z,-141.87
2022-09-11T01:47:17.732Z,-141.87
2022-09-11T01:48:17.750Z,-141.87
2022-09-11T01:49:17.746Z,-141.87
2022-09-11T01:50:17.678Z,-141.87
2022-09-11T01:51:17.668Z,-141.87
2022-09-11T01:52:17.648Z,-141.87
2022-09-11T01:53:17.641Z,-141.87
2022-09-11T01:54:17.629Z,-141.87
2022-09-11T01:55:17.629Z,-141.87
2022-09-11T01:56:17.590Z,-141.87
2022-09-11T01:57:17.598Z,-140.65
2022-09-11T01:58:17.579Z,-140.65
2022-09-11T01:59:20.592Z,-140.65
2022-09-11T02:00:20.700Z,-140.65
2022-09-11T02:01:17.541Z,-139.43
2022-09-11T02:02:17.561Z,-139.43
2022-09-11T02:03:17.513Z,-139.43
2022-09-11T02:04:17.514Z,-139.43
2022-09-11T02:05:17.493Z,-139.43
2022-09-11T02:06:17.524Z,-139.43
2022-09-11T02:07:17.452Z,-139.43
2022-09-11T02:08:17.452Z,-139.43
2022-09-11T02:09:17.443Z,-140.65
2022-09-11T02:10:17.416Z,-140.65
2022-09-11T02:11:17.396Z,-140.65
2022-09-11T02:12:17.517Z,-140.65
2022-09-11T02:13:17.366Z,-140.65
2022-09-11T02:14:17.369Z,-141.87
2022-09-11T02:15:17.360Z,-141.87
2022-09-11T02:16:17.381Z,-141.87
2022-09-11T02:17:17.336Z,-143.08
2022-09-11T02:18:17.337Z,-143.08
2022-09-11T02:19:20.297Z,-143.08
2022-09-11T02:20:20.307Z,-143.08
2022-09-11T02:21:17.287Z,-143.08
2022-09-11T02:22:17.270Z,-143.08
2022-09-11T02:23:17.308Z,-143.08
2022-09-11T02:24:17.239Z,-143.08
2022-09-11T02:25:17.231Z,-143.08
2022-09-11T02:26:17.217Z,-143.08
2022-09-11T02:27:17.192Z,-143.08
2022-09-11T02:28:17.211Z,-143.08
2022-09-11T02:29:17.299Z,-144.30
2022-09-11T02:30:17.165Z,-144.30
2022-09-11T02:31:17.190Z,-144.30
2022-09-11T02:32:17.135Z,-144.30
2022-09-11T02:33:17.137Z,-144.30
2022-09-11T02:34:17.094Z,-143.08
2022-09-11T02:35:17.444Z,-144.30
2022-09-11T02:36:17.086Z,-143.08
2022-09-11T02:37:17.078Z,-143.08
2022-09-11T02:38:17.064Z,-144.30
2022-09-11T02:39:20.035Z,-143.08
2022-09-11T02:40:20.187Z,-143.08
2022-09-11T02:41:17.006Z,-143.08
2022-09-11T02:42:17.009Z,-143.08
2022-09-11T02:43:16.996Z,-143.08
2022-09-11T02:44:16.988Z,-144.30
2022-09-11T02:45:16.957Z,-144.30
2022-09-11T02:46:16.998Z,-144.30
2022-09-11T02:47:16.932Z,-144.30
2022-09-11T02:48:16.918Z,-144.30
2022-09-11T02:49:16.921Z,-144.30
2022-09-11T02:50:16.889Z,-144.30
2022-09-11T02:51:16.891Z,-144.30
2022-09-11T02:52:16.906Z,-144.30
2022-09-11T02:53:16.864Z,-144.30
2022-09-11T02:54:16.852Z,-144.30
2022-09-11T02:55:16.831Z,-144.30
2022-09-11T02:56:16.824Z,-144.30
2022-09-11T02:57:16.860Z,-143.08
2022-09-11T02:58:16.802Z,-143.08
2022-09-11T02:59:19.792Z,-144.30
2022-09-11T03:00:19.772Z,-143.08
2022-09-11T03:01:16.817Z,-144.30
2022-09-11T03:02:16.773Z,-144.30
2022-09-11T03:03:16.764Z,-143.08
2022-09-11T03:04:16.724Z,-143.08
2022-09-11T03:05:16.704Z,-143.08
2022-09-11T03:06:16.686Z,-143.08
2022-09-11T03:07:16.887Z,-143.08
2022-09-11T03:08:16.666Z,-143.08
2022-09-11T03:09:16.647Z,-143.08
2022-09-11T03:10:16.637Z,-143.08
2022-09-11T03:11:16.636Z,-143.08
2022-09-11T03:12:16.606Z,-143.08
2022-09-11T03:13:16.758Z,-143.08
2022-09-11T03:14:16.587Z,-143.08
2022-09-11T03:15:16.568Z,-143.08
2022-09-11T03:16:16.674Z,-143.08
2022-09-11T03:17:16.549Z,-143.08
2022-09-11T03:18:16.531Z,-143.08
2022-09-11T03:19:19.649Z,-143.08
2022-09-11T03:20:19.511Z,-143.08
2022-09-11T03:21:16.480Z,-141.87
2022-09-11T03:22:16.470Z,-141.87
2022-09-11T03:23:16.460Z,-141.87
2022-09-11T03:24:16.441Z,-141.87
2022-09-11T03:25:16.453Z,-141.87
2022-09-11T03:26:16.420Z,-141.87
2022-09-11T03:27:16.392Z,-141.87
2022-09-11T03:28:16.537Z,-141.87
2022-09-11T03:29:16.383Z,-141.87
2022-09-11T03:30:16.354Z,-141.87
2022-09-11T03:31:16.398Z,-141.87
2022-09-11T03:32:16.334Z,-141.87
2022-09-11T03:33:16.326Z,-141.87
2022-09-11T03:34:16.324Z,-141.87
2022-09-11T03:35:16.325Z,-141.87
2022-09-11T03:36:16.286Z,-141.87
2022-09-11T03:37:16.275Z,-141.87
2022-09-11T03:38:16.257Z,-141.87
2022-09-11T03:39:19.287Z,-141.87
2022-09-11T03:40:19.247Z,-141.87
2022-09-11T03:41:16.238Z,-141.87
2022-09-11T03:42:16.217Z,-141.87
2022-09-11T03:43:16.196Z,-141.87
2022-09-11T03:44:16.236Z,-141.87
2022-09-11T03:45:16.178Z,-141.87
2022-09-11T03:46:16.157Z,-141.87
2022-09-11T03:47:16.140Z,-141.87
2022-09-11T03:48:16.129Z,-141.87
2022-09-11T03:49:16.119Z,-141.87
2022-09-11T03:50:16.229Z,-141.87
2022-09-11T03:51:16.090Z,-141.87
2022-09-11T03:52:16.084Z,-141.87
2022-09-11T03:53:16.071Z,-141.87
2022-09-11T03:54:16.034Z,-141.87
2022-09-11T03:55:16.039Z,-141.87
2022-09-11T03:56:16.057Z,-141.87
2022-09-11T03:57:16.032Z,-143.08
2022-09-11T03:58:16.004Z,-143.08
2022-09-11T03:59:18.984Z,-143.08
2022-09-11T04:00:18.997Z,-143.08
2022-09-11T04:01:16.063Z,-143.08
2022-09-11T04:02:15.969Z,-143.08
2022-09-11T04:03:15.934Z,-143.08
2022-09-11T04:04:15.922Z,-143.08
2022-09-11T04:05:15.904Z,-143.08
2022-09-11T04:06:15.916Z,-143.08
2022-09-11T04:07:15.915Z,-143.08
2022-09-11T04:08:15.857Z,-143.08
2022-09-11T04:09:15.855Z,-143.08
2022-09-11T04:10:15.838Z,-143.08
2022-09-11T04:11:15.867Z,-143.08
2022-09-11T04:12:15.953Z,-143.08
2022-09-11T04:13:15.798Z,-143.08
2022-09-11T04:14:15.788Z,-143.08
2022-09-11T04:15:15.778Z,-143.08
2022-09-11T04:16:17.273Z,-143.08
2022-09-11T04:17:15.749Z,-143.08
2022-09-11T04:18:15.870Z,-143.08
2022-09-11T04:19:18.727Z,-143.08
2022-09-11T04:20:18.722Z,-143.08
2022-09-11T04:21:17.164Z,-143.08
2022-09-11T04:22:15.683Z,-143.08
2022-09-11T04:23:15.712Z,-143.08
2022-09-11T04:24:15.692Z,-143.08
2022-09-11T04:25:15.643Z,-143.08
2022-09-11T04:26:16.594Z,-143.08
2022-09-11T04:27:15.622Z,-144.30
2022-09-11T04:28:15.623Z,-143.08
2022-09-11T04:29:15.846Z,-143.08
2022-09-11T04:30:15.576Z,-143.08
2022-09-11T04:31:16.574Z,-143.08
2022-09-11T04:32:15.556Z,-143.08
2022-09-11T04:33:15.548Z,-144.30
2022-09-11T04:34:15.526Z,-144.30
2022-09-11T04:35:15.540Z,-144.30
2022-09-11T04:36:16.245Z,-144.30
2022-09-11T04:37:15.488Z,-144.30
2022-09-11T04:38:15.469Z,-144.30
2022-09-11T04:39:18.460Z,-144.30
2022-09-11T04:40:18.602Z,-144.30
2022-09-11T04:41:16.901Z,-144.30
2022-09-11T04:42:15.410Z,-144.30
2022-09-11T04:43:15.411Z,-144.30
2022-09-11T04:44:15.391Z,-144.30
2022-09-11T04:45:15.381Z,-144.30
2022-09-11T04:46:16.093Z,-144.30
2022-09-11T04:47:15.352Z,-144.30
2022-09-11T04:48:15.320Z,-145.52
2022-09-11T04:49:15.332Z,-145.52
2022-09-11T04:50:15.306Z,-145.52
2022-09-11T04:51:16.801Z,-145.52
2022-09-11T04:52:15.304Z,-145.52
2022-09-11T04:53:15.273Z,-145.52
2022-09-11T04:54:15.253Z,-145.52
2022-09-11T04:55:15.244Z,-145.52
2022-09-11T04:56:16.702Z,-145.52
2022-09-11T04:57:15.273Z,-145.52
2022-09-11T04:58:15.188Z,-145.52
2022-09-11T04:59:18.195Z,-145.52
2022-09-11T05:00:18.186Z,-145.52
2022-09-11T05:01:16.674Z,-145.52
2022-09-11T05:02:15.314Z,-145.52
2022-09-11T05:03:15.167Z,-145.52
2022-09-11T05:04:15.127Z,-145.52
2022-09-11T05:05:15.107Z,-145.52
2022-09-11T05:06:16.563Z,-145.52
2022-09-11T05:07:15.070Z,-145.52
2022-09-11T05:08:23.789Z,-145.52
2022-09-11T05:09:15.031Z,-145.52
2022-09-11T05:10:15.022Z,-145.52
2022-09-11T05:11:16.463Z,-145.52
2022-09-11T05:12:15.175Z,-145.52
2022-09-11T05:13:14.996Z,-145.52
2022-09-11T05:14:14.987Z,-145.52
2022-09-11T05:15:14.976Z,-145.52
2022-09-11T05:16:16.466Z,-145.52
2022-09-11T05:17:14.957Z,-145.52
2022-09-11T05:18:14.983Z,-145.52
2022-09-11T05:19:17.903Z,-145.52
2022-09-11T05:20:17.903Z,-145.52
2022-09-11T05:21:15.690Z,-145.52
2022-09-11T05:22:14.887Z,-145.52
2022-09-11T05:23:14.846Z,-145.52
2022-09-11T05:24:14.842Z,-145.52
2022-09-11T05:25:14.976Z,-145.52
2022-09-11T05:26:14.808Z,-145.52
2022-09-11T05:27:14.788Z,-145.52
2022-09-11T05:28:14.787Z,-145.52
2022-09-11T05:29:14.768Z,-145.52
2022-09-11T05:30:14.761Z,-144.30
2022-09-11T05:31:14.787Z,-144.30
2022-09-11T05:32:14.729Z,-143.08
2022-09-11T05:33:14.741Z,-144.30
2022-09-11T05:34:14.700Z,-144.30
2022-09-11T05:35:14.693Z,-144.30
2022-09-11T05:36:14.671Z,-143.08
2022-09-11T05:37:14.701Z,-143.08
2022-09-11T05:38:14.658Z,-143.08
2022-09-11T05:39:17.632Z,-143.08
2022-09-11T05:40:17.649Z,-144.30
2022-09-11T05:41:14.602Z,-144.30
2022-09-11T05:42:14.621Z,-144.30
2022-09-11T05:43:14.613Z,-144.30
2022-09-11T05:44:14.584Z,-144.30
2022-09-11T05:45:14.554Z,-145.52
2022-09-11T05:46:14.557Z,-145.52
2022-09-11T05:47:14.675Z,-145.52
2022-09-11T05:48:14.525Z,-145.52
2022-09-11T05:49:14.521Z,-145.52
2022-09-11T05:50:14.486Z,-145.52
2022-09-11T05:51:14.477Z,-145.52
2022-09-11T05:52:14.470Z,-145.52
2022-09-11T05:53:14.487Z,-145.52
2022-09-11T05:54:14.437Z,-146.74
2022-09-11T05:55:14.424Z,-145.52
2022-09-11T05:56:14.430Z,-145.52
2022-09-11T05:57:14.438Z,-145.52
2022-09-11T05:58:14.396Z,-145.52
2022-09-11T05:59:17.382Z,-145.52
2022-09-11T06:00:17.372Z,-145.52
2022-09-11T06:01:14.372Z,-145.52
2022-09-11T06:02:14.397Z,-145.52
2022-09-11T06:03:15.640Z,-146.74
2022-09-11T06:04:14.431Z,-146.74
2022-09-11T06:05:14.302Z,-146.74
2022-09-11T06:06:14.280Z,-146.74
2022-09-11T06:07:14.259Z,-145.52
2022-09-11T06:08:14.269Z,-145.52
2022-09-11T06:09:14.232Z,-146.74
2022-09-11T06:10:14.252Z,-146.74
2022-09-11T06:11:14.348Z,-146.74
2022-09-11T06:12:14.193Z,-146.74
2022-09-11T06:13:14.175Z,-146.74
2022-09-11T06:14:14.174Z,-147.96
2022-09-11T06:15:36.377Z,-147.96
2022-09-11T06:16:18.350Z,-147.96
2022-09-11T06:17:14.152Z,-147.96
2022-09-11T06:18:14.125Z,-147.96
2022-09-11T06:19:17.115Z,-147.96
2022-09-11T06:20:17.095Z,-147.96
2022-09-11T06:21:14.070Z,-149.17
2022-09-11T06:22:14.087Z,-149.17
2022-09-11T06:23:14.036Z,-149.17
2022-09-11T06:24:14.027Z,-149.17
2022-09-11T06:25:14.028Z,-149.17
2022-09-11T06:26:13.998Z,-149.17
2022-09-11T06:27:13.999Z,-149.17
2022-09-11T06:28:13.991Z,-150.39
2022-09-11T06:29:13.949Z,-150.39
2022-09-11T06:30:13.940Z,-150.39
2022-09-11T06:31:13.940Z,-150.39
2022-09-11T06:32:13.939Z,-150.39
2022-09-11T06:33:13.920Z,-150.39
2022-09-11T06:34:13.901Z,-149.17
2022-09-11T06:35:13.868Z,-149.17
2022-09-11T06:36:13.852Z,-149.17
2022-09-11T06:37:13.849Z,-149.17
2022-09-11T06:38:13.863Z,-149.17
2022-09-11T06:39:16.841Z,-149.17
2022-09-11T06:40:16.865Z,-149.17
2022-09-11T06:41:13.784Z,-150.39
2022-09-11T06:42:13.771Z,-150.39
2022-09-11T06:43:13.746Z,-149.17
2022-09-11T06:44:13.785Z,-150.39
2022-09-11T06:45:13.723Z,-150.39
2022-09-11T06:46:13.793Z,-150.39
2022-09-11T06:47:13.722Z,-150.39
2022-09-11T06:48:13.696Z,-150.39
2022-09-11T06:49:13.695Z,-151.61
2022-09-11T06:50:13.663Z,-151.61
2022-09-11T06:51:13.794Z,-151.61
2022-09-11T06:52:13.627Z,-151.61
2022-09-11T06:53:13.627Z,-151.61
2022-09-11T06:54:13.598Z,-151.61
2022-09-11T06:55:13.587Z,-151.61
2022-09-11T06:56:13.579Z,-151.61
2022-09-11T06:57:13.714Z,-151.61
2022-09-11T06:58:13.556Z,-152.83
2022-09-11T06:59:16.539Z,-152.83
2022-09-11T07:00:16.533Z,-152.83
2022-09-11T07:01:13.612Z,-152.83
2022-09-11T07:02:13.586Z,-154.04
2022-09-11T07:03:13.613Z,-154.04
2022-09-11T07:04:13.486Z,-154.04
2022-09-11T07:05:13.452Z,-154.04
2022-09-11T07:06:13.442Z,-154.04
2022-09-11T07:07:13.424Z,-152.83
2022-09-11T07:08:13.423Z,-152.83
2022-09-11T07:09:13.433Z,-152.83
2022-09-11T07:10:13.414Z,-151.61
2022-09-11T07:11:13.364Z,-151.61
2022-09-11T07:12:13.375Z,-151.61
2022-09-11T07:13:13.344Z,-152.83
2022-09-11T07:14:13.485Z,-152.83
2022-09-11T07:15:13.327Z,-151.61
2022-09-11T07:16:13.363Z,-150.39
2022-09-11T07:17:13.287Z,-150.39
2022-09-11T07:18:13.304Z,-150.39
2022-09-11T07:19:16.288Z,-150.39
2022-09-11T07:20:16.268Z,-150.39
2022-09-11T07:21:13.229Z,-150.39
2022-09-11T07:22:13.229Z,-150.39
2022-09-11T07:23:13.328Z,-150.39
2022-09-11T07:24:13.198Z,-151.61
2022-09-11T07:25:13.188Z,-151.61
2022-09-11T07:26:13.170Z,-152.83
2022-09-11T07:27:13.150Z,-152.83
2022-09-11T07:28:13.162Z,-152.83
2022-09-11T07:29:13.152Z,-152.83
2022-09-11T07:30:13.115Z,-152.83
2022-09-11T07:31:15.360Z,-152.83
2022-09-11T07:32:14.092Z,-151.61
2022-09-11T07:33:13.072Z,-151.61
2022-09-11T07:34:13.100Z,-151.61
2022-09-11T07:35:13.043Z,-151.61
2022-09-11T07:36:13.083Z,-151.61
2022-09-11T07:37:13.015Z,-150.39
2022-09-11T07:38:13.026Z,-151.61
2022-09-11T07:39:15.996Z,-151.61
2022-09-11T07:40:16.058Z,-151.61
2022-09-11T07:41:12.989Z,-151.61
2022-09-11T07:42:12.977Z,-151.61
2022-09-11T07:43:12.937Z,-151.61
2022-09-11T07:44:13.107Z,-151.61
2022-09-11T07:45:12.913Z,-151.61
2022-09-11T07:46:12.897Z,-151.61
2022-09-11T07:47:12.887Z,-151.61
2022-09-11T07:48:12.889Z,-152.83
2022-09-11T07:49:12.859Z,-152.83
2022-09-11T07:50:12.899Z,-152.83
2022-09-11T07:51:12.840Z,-151.61
2022-09-11T07:52:16.686Z,-152.83
2022-09-11T07:53:12.801Z,-152.83
2022-09-11T07:54:12.806Z,-152.83
2022-09-11T07:55:12.779Z,-152.83
2022-09-11T07:56:12.792Z,-154.04
2022-09-11T07:57:12.751Z,-154.04
2022-09-11T07:58:12.761Z,-154.04
2022-09-11T07:59:15.754Z,-155.26
2022-09-11T08:00:15.723Z,-155.26
2022-09-11T08:01:12.757Z,-155.26
2022-09-11T08:02:12.706Z,-155.26
2022-09-11T08:03:12.708Z,-154.04
2022-09-11T08:04:12.662Z,-152.83
2022-09-11T08:05:12.786Z,-152.83
2022-09-11T08:06:12.627Z,-152.83
2022-09-11T08:07:12.617Z,-154.04
2022-09-11T08:08:12.615Z,-154.04
2022-09-11T08:09:12.586Z,-154.04
2022-09-11T08:10:26.685Z,-154.04
2022-09-11T08:11:13.594Z,-154.04
2022-09-11T08:12:12.745Z,-154.04
2022-09-11T08:13:12.529Z,-154.04
2022-09-11T08:14:12.518Z,-154.04
2022-09-11T08:15:12.507Z,-152.83
2022-09-11T08:16:12.512Z,-154.04
2022-09-11T08:17:12.479Z,-152.83
2022-09-11T08:18:12.600Z,-152.83
2022-09-11T08:19:15.449Z,-152.83
2022-09-11T08:20:15.461Z,-154.04
2022-09-11T08:21:13.200Z,-154.04
2022-09-11T08:22:12.418Z,-152.83
2022-09-11T08:23:12.405Z,-152.83
2022-09-11T08:24:12.413Z,-152.83
2022-09-11T08:25:12.372Z,-154.04
2022-09-11T08:26:12.365Z,-152.83
2022-09-11T08:27:12.347Z,-154.04
2022-09-11T08:28:12.342Z,-154.04
2022-09-11T08:29:12.474Z,-155.26
2022-09-11T08:30:12.306Z,-156.48
2022-09-11T08:31:12.332Z,-156.48
2022-09-11T08:32:12.283Z,-156.48
2022-09-11T08:33:12.265Z,-156.48
2022-09-11T08:34:12.253Z,-156.48
2022-09-11T08:35:12.269Z,-156.48
2022-09-11T08:36:12.227Z,-155.26
2022-09-11T08:37:12.241Z,-155.26
2022-09-11T08:38:12.207Z,-155.26
2022-09-11T08:39:15.177Z,-155.26
2022-09-11T08:40:15.241Z,-155.26
2022-09-11T08:41:12.158Z,-155.26
2022-09-11T08:42:12.168Z,-155.26
2022-09-11T08:43:12.141Z,-156.48
2022-09-11T08:44:12.281Z,-156.48
2022-09-11T08:45:12.100Z,-156.48
2022-09-11T08:46:12.141Z,-156.48
2022-09-11T08:47:12.130Z,-156.48
2022-09-11T08:48:12.073Z,-157.70
2022-09-11T08:49:12.049Z,-157.70
2022-09-11T08:50:12.061Z,-157.70
2022-09-11T08:51:12.021Z,-157.70
2022-09-11T08:52:12.015Z,-157.70
2022-09-11T08:53:12.919Z,-158.91
2022-09-11T08:54:12.134Z,-157.70
2022-09-11T08:55:11.963Z,-157.70
2022-09-11T08:56:11.956Z,-157.70
2022-09-11T08:57:12.010Z,-157.70
2022-09-11T08:58:11.935Z,-157.70
2022-09-11T08:59:14.936Z,-156.48
2022-09-11T09:00:14.915Z,-156.48
2022-09-11T09:01:11.939Z,-156.48
2022-09-11T09:02:11.924Z,-157.70
2022-09-11T09:03:11.877Z,-157.70
2022-09-11T09:04:11.860Z,-157.70
2022-09-11T09:05:11.829Z,-156.48
2022-09-11T09:06:11.839Z,-156.48
2022-09-11T09:07:11.839Z,-156.48
2022-09-11T09:08:11.851Z,-156.48
2022-09-11T09:09:11.776Z,-155.26
2022-09-11T09:10:11.760Z,-155.26
2022-09-11T09:11:11.747Z,-155.26
2022-09-11T09:12:11.731Z,-155.26
2022-09-11T09:13:11.732Z,-156.48
2022-09-11T09:14:11.851Z,-156.48
2022-09-11T09:15:11.693Z,-156.48
2022-09-11T09:16:11.817Z,-157.70
2022-09-11T09:17:11.675Z,-157.70
2022-09-11T09:18:11.662Z,-157.70
2022-09-11T09:19:14.663Z,-157.70
2022-09-11T09:20:14.633Z,-157.70
2022-09-11T09:21:11.615Z,-157.70
2022-09-11T09:22:11.595Z,-158.91
2022-09-11T09:23:11.586Z,-158.91
2022-09-11T09:24:11.575Z,-157.70
2022-09-11T09:25:11.586Z,-157.70
2022-09-11T09:26:11.545Z,-158.91
2022-09-11T09:27:11.536Z,-158.91
2022-09-11T09:28:11.547Z,-158.91
2022-09-11T09:29:11.505Z,-158.91
2022-09-11T09:30:11.516Z,-158.91
2022-09-11T09:31:11.535Z,-158.91
2022-09-11T09:32:11.487Z,-158.91
2022-09-11T09:33:13.291Z,-158.91
2022-09-11T09:34:11.429Z,-158.91
2022-09-11T09:35:11.429Z,-158.91
2022-09-11T09:36:11.431Z,-158.91
2022-09-11T09:37:11.393Z,-158.91
2022-09-11T09:38:11.383Z,-158.91
2022-09-11T09:39:14.374Z,-158.91
2022-09-11T09:40:14.410Z,-158.91
2022-09-11T09:41:11.362Z,-158.91
2022-09-11T09:42:11.355Z,-158.91
2022-09-11T09:43:11.314Z,-158.91
2022-09-11T09:44:11.294Z,-160.13
2022-09-11T09:45:11.284Z,-160.13
2022-09-11T09:46:11.361Z,-160.13
2022-09-11T09:47:11.415Z,-160.13
2022-09-11T09:48:11.246Z,-160.13
2022-09-11T09:49:11.234Z,-161.35
2022-09-11T09:50:11.218Z,-161.35
2022-09-11T09:51:11.206Z,-161.35
2022-09-11T09:52:11.188Z,-161.35
2022-09-11T09:53:11.206Z,-161.35
2022-09-11T09:54:11.172Z,-161.35
2022-09-11T09:55:11.149Z,-161.35
2022-09-11T09:56:11.137Z,-161.35
2022-09-11T09:57:11.127Z,-161.35
2022-09-11T09:58:11.320Z,-161.35
2022-09-11T09:59:14.100Z,-161.35
2022-09-11T10:00:14.101Z,-161.35
2022-09-11T10:01:13.495Z,-161.35
2022-09-11T10:02:11.085Z,-161.35
2022-09-11T10:03:11.052Z,-161.35
2022-09-11T10:04:11.090Z,-161.35
2022-09-11T10:05:11.032Z,-161.35
2022-09-11T10:06:11.004Z,-162.57
2022-09-11T10:07:10.994Z,-162.57
2022-09-11T10:08:10.984Z,-162.57
2022-09-11T10:09:10.975Z,-162.57
2022-09-11T10:10:10.994Z,-162.57
2022-09-11T10:11:10.947Z,-162.57
2022-09-11T10:12:10.942Z,-162.57
2022-09-11T10:13:19.629Z,-162.57
2022-09-11T10:14:17.729Z,-161.35
2022-09-11T10:15:11.928Z,-161.35
2022-09-11T10:16:10.927Z,-161.35
2022-09-11T10:17:10.871Z,-161.35
2022-09-11T10:18:10.852Z,-161.35
2022-09-11T10:19:13.839Z,-160.13
2022-09-11T10:20:13.886Z,-160.13
2022-09-11T10:21:10.820Z,-160.13
2022-09-11T10:22:10.800Z,-161.35
2022-09-11T10:23:10.821Z,-161.35
2022-09-11T10:24:10.772Z,-161.35
2022-09-11T10:25:10.908Z,-161.35
2022-09-11T10:26:10.751Z,-162.57
2022-09-11T10:27:10.754Z,-162.57
2022-09-11T10:28:10.722Z,-162.57
2022-09-11T10:29:10.713Z,-162.57
2022-09-11T10:30:10.698Z,-162.57
2022-09-11T10:31:10.785Z,-163.78
2022-09-11T10:32:10.666Z,-163.78
2022-09-11T10:33:10.666Z,-163.78
2022-09-11T10:34:10.644Z,-163.78
2022-09-11T10:35:10.636Z,-163.78
2022-09-11T10:36:10.616Z,-163.78
2022-09-11T10:37:10.637Z,-165.00
2022-09-11T10:38:10.587Z,-165.00
2022-09-11T10:39:13.598Z,-163.78
2022-09-11T10:40:13.661Z,-163.78
2022-09-11T10:41:10.557Z,-163.78
2022-09-11T10:42:10.571Z,-163.78
2022-09-11T10:43:10.666Z,-163.78
2022-09-11T10:44:10.520Z,-162.57
2022-09-11T10:45:10.500Z,-162.57
2022-09-11T10:46:10.551Z,-162.57
2022-09-11T10:47:10.489Z,-162.57
2022-09-11T10:48:10.472Z,-162.57
2022-09-11T10:49:10.472Z,-162.57
2022-09-11T10:50:10.434Z,-162.57
2022-09-11T10:51:10.420Z,-162.57
2022-09-11T10:52:10.412Z,-163.78
2022-09-11T10:53:10.396Z,-163.78
2022-09-11T10:54:10.405Z,-163.78
2022-09-11T10:55:10.365Z,-163.78
2022-09-11T10:56:10.356Z,-165.00
2022-09-11T10:57:10.353Z,-165.00
2022-09-11T10:58:10.320Z,-165.00
2022-09-11T10:59:13.518Z,-165.00
2022-09-11T11:00:13.312Z,-165.00
2022-09-11T11:01:10.358Z,-165.00
2022-09-11T11:02:10.332Z,-165.00
2022-09-11T11:03:10.252Z,-165.00
2022-09-11T11:04:12.291Z,-165.00
2022-09-11T11:05:10.240Z,-163.78
2022-09-11T11:06:10.199Z,-163.78
2022-09-11T11:07:10.190Z,-163.78
2022-09-11T11:08:10.171Z,-163.78
2022-09-11T11:09:10.339Z,-163.78
2022-09-11T11:10:10.151Z,-163.78
2022-09-11T11:11:10.131Z,-163.78
2022-09-11T11:12:10.113Z,-163.78
2022-09-11T11:13:10.107Z,-163.78
2022-09-11T11:14:10.094Z,-163.78
2022-09-11T11:15:10.213Z,-165.00
2022-09-11T11:16:10.087Z,-165.00
2022-09-11T11:17:10.052Z,-165.00
2022-09-11T11:18:10.036Z,-165.00
2022-09-11T11:19:13.023Z,-165.00
2022-09-11T11:20:13.235Z,-165.00
2022-09-11T11:21:09.995Z,-163.78
2022-09-11T11:22:09.989Z,-165.00
2022-09-11T11:23:14.497Z,-163.78
2022-09-11T11:24:10.948Z,-163.78
2022-09-11T11:25:09.939Z,-163.78
2022-09-11T11:26:10.049Z,-165.00
2022-09-11T11:27:09.911Z,-163.78
2022-09-11T11:28:09.890Z,-163.78
2022-09-11T11:29:09.881Z,-163.78
2022-09-11T11:30:09.869Z,-163.78
2022-09-11T11:31:09.867Z,-163.78
2022-09-11T11:32:09.994Z,-163.78
2022-09-11T11:33:09.832Z,-163.78
2022-09-11T11:34:09.811Z,-163.78
2022-09-11T11:35:09.823Z,-163.78
2022-09-11T11:36:09.782Z,-163.78
2022-09-11T11:37:09.765Z,-163.78
2022-09-11T11:38:09.783Z,-162.57
2022-09-11T11:39:12.734Z,-163.78
2022-09-11T11:40:12.826Z,-163.78
2022-09-11T11:41:09.718Z,-162.57
2022-09-11T11:42:09.834Z,-162.57
2022-09-11T11:43:09.677Z,-162.57
2022-09-11T11:44:09.665Z,-162.57
2022-09-11T11:45:09.678Z,-162.57
2022-09-11T11:46:09.825Z,-162.57
2022-09-11T11:47:09.620Z,-162.57
2022-09-11T11:48:09.611Z,-162.57
2022-09-11T11:49:09.600Z,-162.57
2022-09-11T11:50:09.579Z,-162.57
2022-09-11T11:51:09.572Z,-162.57
2022-09-11T11:52:09.582Z,-162.57
2022-09-11T11:53:09.568Z,-163.78
2022-09-11T11:54:09.524Z,-163.78
2022-09-11T11:55:09.512Z,-163.78
2022-09-11T11:56:09.492Z,-165.00
2022-09-11T11:57:09.492Z,-165.00
2022-09-11T11:58:09.593Z,-165.00
2022-09-11T11:59:12.453Z,-166.22
2022-09-11T12:00:12.522Z,1107.83
2022-09-11T12:01:12.436Z,1107.83
2022-09-11T12:02:09.497Z,1107.83
2022-09-11T12:03:09.421Z,1107.83
2022-09-11T12:04:09.411Z,1107.84
2022-09-11T12:05:09.397Z,1107.83